Holloman Air Force Base Alamogordo US
ICAO: KHMN
IATA: HMN
Category: Large
Scheduled Services: No

Elevation: 4093 ft
TransAlt. 18000 ft.

Airport Communications:
ARMY AVIATION:22.93
APP:120.6
ATIS:27.35
CLNC DEL:126.7
CHEROKEE MISSION:126.9
DEP:128.1
GND:127.05
PMSV METRO:34.655
COMD POST:38.13
PTD:37.22
TWR:119.3

KHMN Zoom In..

Runways:

(A) RW 04 length 10580 ft width 300 ft
---- / hdg 37

(B) RW 07 length 12911 ft width 150 ft
---- / hdg 70

(C) RW 16 length 12132 ft width 150 ft
ILS 108.90 / hdg 158

(D) RW 22 length 10580 ft width 300 ft
ILS 111.70 / hdg 217

(E) RW 25 length 12911 ft width 150 ft
---- / hdg 250

(F) RW 34 length 12132 ft width 150 ft
---- / hdg 338

Location; KHMN
Day. 20 / Time. 09.58 Zulu
* Altimeter: 29.87
* Temperature: 18° c. 64.4°f.
* Wind from: 160° Speed 18 kn with Gusts up to 27 kn.
Dewpoint: 06° c.
Visibility: 10 Statute Miles.
Clouds: Clear (automated report).

KHMN 200958Z AUTO 16018G27KT 10SM CLR 18/06 A2987 RMK AO2 PK WND 18037/21 SLP051 T01800062 $


Wind From 160°
Speed 18 kn.

  YouTube Music Video
 
jpsmedia.com for Web Design  worldairports.se 2018   terms of use